»·PEaware :: N900TB PANC-PABR

N900TB :: PANC-PABR

FLIGHT INFORMATION

Flight Status: Arrived
Operator: Privately registered:
United States
More flights under this callsign
Pilot: Anonymous 14085 (14085)
Aircraft: SOCATA TBM-900
(TBM9)
More flights by this aircraft type
Origin: PANC Stevens Anchorage Intl
United States
Destination: PABR Wiley Post-Will Rogers Meml
United States
More flights between these airports :: More routes between these airports
Route: KUTDE BRONX CHIPS LEDHO BRW
File this flight plan on PilotEdge
Remarks: RMK / SIMBRIEF
Altitude:
(Current/Filed)
28,000ft
Speed:
(Current/Filed)
318kts
Departed: 29-Jul-20 04:33 PM
Arrived: 29-Jul-20 06:50 PM
Distance/Time
Traveled:
628nm/2:17
Distance/Time
To Go:
Arrived

Flight Plot

Page will automatically refresh every two minutes.

Flight plan parsing failed; only flown route is shown


Map Options




Map Legend


Flown Route
Filed Route
Departure Airport
Arrival Airport
Navaid (VOR, NDB)
Fix

Horizontal Profiles

Position Reports

Time Latitude Longitude Heading Altitude Ground
Speed
29-Jul-20 16:22 61.176201 -149.997894 341 153ft 0kts
29-Jul-20 16:23 61.176201 -149.997894 341 153ft 0kts
29-Jul-20 16:24 61.176201 -149.997894 341 153ft 0kts
29-Jul-20 16:25 61.176201 -149.997894 341 153ft 0kts
29-Jul-20 16:26 61.176201 -149.997894 341 153ft 0kts
29-Jul-20 16:27 61.176218 -149.997903 346 153ft 1kts
29-Jul-20 16:28 61.176451 -149.997744 166 153ft 5kts
29-Jul-20 16:29 61.174784 -149.996830 164 153ft 7kts
29-Jul-20 16:30 61.171978 -149.995252 164 153ft 12kts
29-Jul-20 16:31 61.171257 -149.997516 269 153ft 5kts
29-Jul-20 16:32 61.179581 -150.003217 345 153ft 113kts
29-Jul-20 16:33 61.208606 -150.037678 322 1888ft 140kts
29-Jul-20 16:34 61.246821 -150.062679 350 4079ft 151kts
29-Jul-20 16:35 61.288380 -150.079447 351 6367ft 159kts
29-Jul-20 16:36 61.332796 -150.097129 351 8720ft 169kts
29-Jul-20 16:37 61.380167 -150.116050 350 10857ft 179kts
29-Jul-20 16:38 61.430235 -150.136158 348 13008ft 189kts
29-Jul-20 16:39 61.482683 -150.157274 348 15355ft 196kts
29-Jul-20 16:40 61.537279 -150.179330 347 17620ft 205kts
29-Jul-20 16:41 61.594154 -150.202391 346 19844ft 213kts
29-Jul-20 16:42 61.653123 -150.226372 344 22220ft 221kts
29-Jul-20 16:43 61.713758 -150.251113 343 24644ft 226kts
29-Jul-20 16:44 61.776160 -150.276727 342 26893ft 232kts
29-Jul-20 16:45 61.839866 -150.302992 341 28922ft 237kts
29-Jul-20 16:46 61.908089 -150.331287 342 30101ft 257kts
29-Jul-20 16:47 61.983515 -150.362746 342 30125ft 290kts
29-Jul-20 16:48 62.064834 -150.396727 342 30116ft 304kts
29-Jul-20 16:49 62.148428 -150.431852 343 30108ft 309kts
29-Jul-20 16:50 62.233337 -150.467737 343 30107ft 311kts
29-Jul-20 16:51 62.318250 -150.503834 343 30107ft 312kts
29-Jul-20 16:52 62.403412 -150.540247 343 30107ft 312kts
29-Jul-20 16:53 62.488734 -150.576943 343 30107ft 312kts
29-Jul-20 16:54 62.574011 -150.613835 343 30108ft 313kts
29-Jul-20 16:55 62.659169 -150.650892 342 30108ft 313kts
29-Jul-20 16:56 62.744609 -150.688290 342 30112ft 313kts
29-Jul-20 16:57 62.829855 -150.725830 342 30112ft 315kts
29-Jul-20 16:58 62.915786 -150.763891 342 30112ft 316kts
29-Jul-20 16:59 63.001945 -150.802278 342 30111ft 315kts
29-Jul-20 17:00 63.087584 -150.840669 342 30112ft 314kts
29-Jul-20 17:01 63.172932 -150.879159 342 30108ft 313kts
29-Jul-20 17:02 63.258236 -150.917860 342 30108ft 312kts
29-Jul-20 17:03 63.343413 -150.956741 342 30109ft 312kts
29-Jul-20 17:04 63.428516 -150.995825 342 30109ft 312kts
29-Jul-20 17:05 63.513452 -151.035066 342 30109ft 312kts
29-Jul-20 17:06 63.598590 -151.074645 342 30101ft 312kts
29-Jul-20 17:07 63.683545 -151.114376 342 30083ft 312kts
29-Jul-20 17:08 63.768823 -151.154510 342 30064ft 312kts
29-Jul-20 17:09 63.853704 -151.194690 342 30057ft 312kts
29-Jul-20 17:10 63.938557 -151.235116 342 30055ft 312kts
29-Jul-20 17:11 64.023514 -151.275846 342 30055ft 312kts
29-Jul-20 17:12 64.108070 -151.316631 342 30054ft 312kts
29-Jul-20 17:13 64.193090 -151.357884 342 30052ft 311kts
29-Jul-20 17:14 64.277611 -151.399165 342 30052ft 311kts
29-Jul-20 17:15 64.361933 -151.440616 342 30053ft 311kts
29-Jul-20 17:16 64.446881 -151.482612 342 30053ft 311kts
29-Jul-20 17:17 64.531494 -151.524732 342 30053ft 311kts
29-Jul-20 17:18 64.615993 -151.567055 342 30053ft 311kts
29-Jul-20 17:19 64.700505 -151.609664 342 30053ft 311kts
29-Jul-20 17:20 64.785175 -151.652606 341 30055ft 311kts
29-Jul-20 17:21 64.869916 -151.695886 341 30056ft 311kts
29-Jul-20 17:22 64.953721 -151.738950 341 30057ft 311kts
29-Jul-20 17:23 65.038934 -151.783016 341 30057ft 312kts
29-Jul-20 17:24 65.123824 -151.827209 341 30053ft 311kts
29-Jul-20 17:25 65.208247 -151.871455 341 30053ft 311kts
29-Jul-20 17:26 65.292645 -151.915957 341 30054ft 311kts
29-Jul-20 17:27 65.377123 -151.960816 341 30054ft 311kts
29-Jul-20 17:28 65.461812 -152.006077 341 30054ft 311kts
29-Jul-20 17:29 65.546106 -152.051407 341 30054ft 311kts
29-Jul-20 17:30 65.630647 -152.097213 341 30055ft 311kts
29-Jul-20 17:31 65.714708 -152.143028 341 30055ft 311kts
29-Jul-20 17:32 65.799266 -152.189438 341 30055ft 311kts
29-Jul-20 17:33 65.883890 -152.236197 341 30055ft 311kts
29-Jul-20 17:34 65.968389 -152.283195 341 30056ft 311kts
29-Jul-20 17:35 66.053136 -152.330671 341 30056ft 312kts
29-Jul-20 17:36 66.137549 -152.378260 341 30047ft 311kts
29-Jul-20 17:37 66.222008 -152.426233 341 30037ft 311kts
29-Jul-20 17:38 66.306390 -152.474466 341 30031ft 311kts
29-Jul-20 17:39 66.390592 -152.523989 341 30029ft 311kts
29-Jul-20 17:40 66.474910 -152.574162 341 30031ft 311kts
29-Jul-20 17:41 66.558997 -152.624547 341 30034ft 311kts
29-Jul-20 17:42 66.642893 -152.675172 340 30036ft 311kts
29-Jul-20 17:43 66.727342 -152.726508 340 30035ft 311kts
29-Jul-20 17:44 66.811329 -152.777904 340 30034ft 311kts
29-Jul-20 17:45 66.895858 -152.829988 340 30031ft 311kts
29-Jul-20 17:46 66.979932 -152.882175 340 30030ft 312kts
29-Jul-20 17:47 67.064139 -152.934811 340 30030ft 311kts
29-Jul-20 17:48 67.147890 -152.987535 340 30029ft 309kts
29-Jul-20 17:49 67.231507 -153.040572 340 30026ft 308kts
29-Jul-20 17:50 67.314580 -153.093636 340 30019ft 306kts
29-Jul-20 17:51 67.396826 -153.146540 340 30011ft 305kts
29-Jul-20 17:53 67.479334 -153.200465 340 29988ft 305kts
29-Jul-20 17:54 67.561452 -153.255521 340 29979ft 305kts
29-Jul-20 17:55 67.643810 -153.311139 340 29963ft 305kts
29-Jul-20 17:56 67.725740 -153.366851 340 29944ft 305kts
29-Jul-20 17:57 67.807804 -153.423082 340 29962ft 304kts
29-Jul-20 17:58 67.889578 -153.479524 340 29973ft 304kts
29-Jul-20 17:59 67.971656 -153.536576 340 29959ft 305kts
29-Jul-20 18:00 68.053707 -153.594036 340 29944ft 305kts
29-Jul-20 18:01 68.135819 -153.651945 339 29946ft 304kts
29-Jul-20 18:02 68.217412 -153.709933 339 29945ft 304kts
29-Jul-20 18:03 68.299242 -153.768510 339 29945ft 304kts
29-Jul-20 18:04 68.381031 -153.827501 339 29945ft 304kts
29-Jul-20 18:05 68.462717 -153.886859 339 29945ft 304kts
29-Jul-20 18:05 68.530940 -153.936778 339 29945ft 304kts
29-Jul-20 18:07 68.626270 -154.007046 339 29945ft 304kts
29-Jul-20 18:08 68.707905 -154.067710 339 29945ft 304kts
29-Jul-20 18:09 68.789880 -154.129106 339 29945ft 304kts
29-Jul-20 18:09 68.857939 -154.180438 339 29945ft 304kts
29-Jul-20 18:11 68.953014 -154.252682 339 29945ft 304kts
29-Jul-20 18:11 69.020587 -154.304428 339 29945ft 304kts
29-Jul-20 18:13 69.115777 -154.377879 339 29943ft 304kts
29-Jul-20 18:13 69.183870 -154.430838 339 29915ft 305kts
29-Jul-20 18:14 69.265760 -154.494985 339 29827ft 306kts
29-Jul-20 18:15 69.347940 -154.559860 339 29749ft 307kts
29-Jul-20 18:16 69.430050 -154.625187 339 29741ft 305kts
29-Jul-20 18:17 69.444503 -154.636737 339 29741ft 305kts
29-Jul-20 18:18 69.444503 -154.636737 339 29741ft 305kts
29-Jul-20 18:20 69.479734 -154.664970 338 29744ft 305kts
29-Jul-20 18:20 69.548200 -154.720167 338 29248ft 314kts
29-Jul-20 18:21 69.634630 -154.790344 338 27819ft 331kts
29-Jul-20 18:22 69.724798 -154.864132 339 26314ft 342kts
29-Jul-20 18:23 69.817047 -154.940306 339 24783ft 345kts
29-Jul-20 18:24 69.908801 -155.016763 339 23366ft 345kts
29-Jul-20 18:25 70.001412 -155.094684 339 21863ft 348kts
29-Jul-20 18:26 70.093108 -155.172510 340 20351ft 338kts
29-Jul-20 18:27 70.181417 -155.248149 340 18880ft 333kts
29-Jul-20 18:28 70.269833 -155.324573 341 17419ft 330kts
29-Jul-20 18:29 70.356887 -155.400486 341 15981ft 325kts
29-Jul-20 18:30 70.442965 -155.476211 342 14558ft 320kts
29-Jul-20 18:31 70.528012 -155.551688 342 13151ft 317kts
29-Jul-20 18:32 70.611581 -155.626466 342 11767ft 306kts
29-Jul-20 18:33 70.690182 -155.697355 341 10465ft 289kts
29-Jul-20 18:34 70.766125 -155.766475 340 9211ft 282kts
29-Jul-20 18:35 70.840613 -155.834811 340 7975ft 278kts
29-Jul-20 18:36 70.914276 -155.902931 339 6749ft 275kts
29-Jul-20 18:37 70.987136 -155.970817 339 5535ft 272kts
29-Jul-20 18:38 71.058612 -156.037904 339 4342ft 263kts
29-Jul-20 18:39 71.126639 -156.102229 338 3198ft 243kts
29-Jul-20 18:40 71.188597 -156.161237 338 2163ft 224kts
29-Jul-20 18:41 71.246225 -156.171798 355 1986ft 191kts
29-Jul-20 18:42 71.283183 -156.224656 270 1706ft 137kts
29-Jul-20 18:43 71.284382 -156.322841 264 1744ft 100kts
29-Jul-20 18:44 71.284600 -156.407844 264 1696ft 94kts
29-Jul-20 18:45 71.284719 -156.489578 264 1559ft 94kts
29-Jul-20 18:46 71.285187 -156.563105 266 1025ft 82kts
29-Jul-20 18:47 71.285723 -156.632545 263 919ft 80kts
29-Jul-20 18:48 71.284996 -156.702499 263 404ft 81kts
29-Jul-20 18:49 71.284878 -156.761099 272 16ft 24kts
29-Jul-20 18:50 71.285920 -156.775516 315 16ft 0kts
29-Jul-20 18:51 71.286999 -156.778761 359 16ft 3kts
29-Jul-20 18:52 71.287257 -156.777830 83 16ft 0kts
29-Jul-20 18:53 71.287257 -156.777830 83 16ft 0kts
29-Jul-20 18:54 71.287257 -156.777830 83 16ft 0kts
29-Jul-20 18:55 71.287257 -156.777830 83 16ft 0kts
29-Jul-20 18:56 71.287257 -156.777830 83 16ft 0kts
29-Jul-20 18:57 71.287257 -156.777830 83 16ft 0kts
29-Jul-20 18:58 71.287257 -156.777830 83 16ft 0kts
29-Jul-20 18:59 71.287257 -156.777830 83 16ft 0kts
29-Jul-20 19:00 71.287257 -156.777830 83 16ft 0kts
29-Jul-20 19:01 71.287257 -156.777830 83 16ft 0kts
29-Jul-20 19:02 71.287257 -156.777830 83 16ft 0kts
29-Jul-20 19:03 71.287257 -156.777830 83 16ft 0kts
29-Jul-20 19:04 71.287257 -156.777830 83 16ft 0kts

Navigation Log

Ident Type
Flight plan parsing failed, navigation log unavailable